Maun, Botswana
Current Conditions -  °F | °C
As of 5:00 PM on Sunday 21 Dec 2014 (Local Time) from FBFT Reporting Station
Broken Clouds Broken Clouds  
Wind Chill: 88°   Ceiling: 3000
Heat Index: 88°   Visibility: 6mi
Dew Point: 63°   Wind: 12mph
Humidity: 43%   Direction: 140°SE
Pressure: 29.88"   Gusts: NA
Location:  19.99°S, 23.42°E
Report Text: FBFT 211500Z 14010KT 9999 BKN030 FEW035CB 31/17 Q1012
Loading
Personal Weather Stations






























Interactive Weather Map New forecast layout! Learn more

10-Day Weather Forecast

Advertisements
Track Severe Weather on mobile